PWSweather.com
Personal Weather Stations
Station Observations
KTXROWLE6
Ravens Nest, Rowlett, TX 75089

Ravens NestRowlett, TX 75089

Lat: 32.93105, Lon: -96.57368

Elevation: 556

Station Type: Davis Vantage Pro2 6152

http://rowlett.ws

Latest ConditionsUpdated 4:05:05 AM CDT Tuesday, Sep 2, 2014
Currently Today's Max Today's Min Today's Average
Temperature 80.6°F27.0°C 84.7°F29.3°C 80.6°F27.0°C 82.5°F28.1°C
Dew Point 73.4°F23.0°C 73.9°F23.3°C 72.4°F22.4°C 73.3°F22.9°C
Winds 2.0 mph SE3.2 kmh SE 6.0 mph SE9.7 kmh SE - 2.3 mph 3.7 kmh
Wind Gusts 8.0 mph12.9 kmh 10.0 mph16.1 kmh - -
Humidity 79% 79% 67% 74%
Pressure 29.87 in1011.5 mb 29.89 in1012.2 mb 29.85 in1010.8 mb -
Hour Temp Dew Point Humidity Winds Wind Gusts Pressure Precip Precip Rate Daily Precip Total
04:05 AM 80.6°F27.0°C 73.4°F23.0°C 79% 2.0 mph SE3.2 kmh SE 8.0 mph12.9 kmh 29.87 in1011.5 mb 0.00 in0.0 mm 0.00 in/hr0.0 mm/hr 0.00 in0.0 mm
04:00 AM 80.6°F27.0°C 73.4°F23.0°C 79% Calm Calm 7.0 mph11.3 kmh 29.86 in1011.2 mb 0.00 in0.0 mm 0.00 in/hr0.0 mm/hr 0.00 in0.0 mm
03:55 AM 80.6°F27.0°C 73.4°F23.0°C 79% 5.0 mph ESE8.0 kmh ESE 5.0 mph8.0 kmh 29.86 in1011.2 mb 0.00 in0.0 mm 0.00 in/hr0.0 mm/hr 0.00 in0.0 mm
03:50 AM 80.7°F27.1°C 73.5°F23.1°C 79% 2.0 mph SE3.2 kmh SE 7.0 mph11.3 kmh 29.86 in1011.2 mb 0.00 in0.0 mm 0.00 in/hr0.0 mm/hr 0.00 in0.0 mm
03:45 AM 80.7°F27.1°C 73.5°F23.1°C 79% Calm Calm 8.0 mph12.9 kmh 29.85 in1010.8 mb 0.00 in0.0 mm 0.00 in/hr0.0 mm/hr 0.00 in0.0 mm
03:40 AM 80.8°F27.1°C 73.6°F23.1°C 79% 4.0 mph SE6.4 kmh SE 8.0 mph12.9 kmh 29.85 in1010.8 mb 0.00 in0.0 mm 0.00 in/hr0.0 mm/hr 0.00 in0.0 mm
03:35 AM 80.9°F27.2°C 73.7°F23.2°C 79% 2.0 mph S3.2 kmh S 4.0 mph6.4 kmh 29.85 in1010.8 mb 0.00 in0.0 mm 0.00 in/hr0.0 mm/hr 0.00 in0.0 mm
03:30 AM 81.0°F27.2°C 73.4°F23.0°C 78% 4.0 mph SW6.4 kmh SW 8.0 mph12.9 kmh 29.85 in1010.8 mb 0.00 in0.0 mm 0.00 in/hr0.0 mm/hr 0.00 in0.0 mm
03:25 AM 81.1°F27.3°C 73.5°F23.1°C 78% 1.0 mph SE1.6 kmh SE 6.0 mph9.7 kmh 29.85 in1010.8 mb 0.00 in0.0 mm 0.00 in/hr0.0 mm/hr 0.00 in0.0 mm
03:20 AM 81.2°F27.3°C 73.6°F23.1°C 78% 3.0 mph SSE4.8 kmh SSE 6.0 mph9.7 kmh 29.85 in1010.8 mb 0.00 in0.0 mm 0.00 in/hr0.0 mm/hr 0.00 in0.0 mm
03:15 AM 81.3°F27.4°C 73.7°F23.2°C 78% 3.0 mph SW4.8 kmh SW 7.0 mph11.3 kmh 29.86 in1011.2 mb 0.00 in0.0 mm 0.00 in/hr0.0 mm/hr 0.00 in0.0 mm
03:10 AM 81.4°F27.4°C 73.8°F23.2°C 78% 3.0 mph SE4.8 kmh SE 5.0 mph8.0 kmh 29.86 in1011.2 mb 0.00 in0.0 mm 0.00 in/hr0.0 mm/hr 0.00 in0.0 mm
03:05 AM 81.4°F27.4°C 73.8°F23.2°C 78% 4.0 mph S6.4 kmh S 7.0 mph11.3 kmh 29.86 in1011.2 mb 0.00 in0.0 mm 0.00 in/hr0.0 mm/hr 0.00 in0.0 mm
03:00 AM 81.5°F27.5°C 73.5°F23.1°C 77% Calm Calm 7.0 mph11.3 kmh 29.86 in1011.2 mb 0.00 in0.0 mm 0.00 in/hr0.0 mm/hr 0.00 in0.0 mm
02:55 AM 81.6°F27.6°C 73.6°F23.1°C 77% Calm Calm 6.0 mph9.7 kmh 29.86 in1011.2 mb 0.00 in0.0 mm 0.00 in/hr0.0 mm/hr 0.00 in0.0 mm
02:50 AM 81.7°F27.6°C 73.7°F23.2°C 77% 3.0 mph S4.8 kmh S 3.0 mph4.8 kmh 29.86 in1011.2 mb 0.00 in0.0 mm 0.00 in/hr0.0 mm/hr 0.00 in0.0 mm
02:45 AM 81.8°F27.7°C 73.8°F23.2°C 77% 3.0 mph S4.8 kmh S 6.0 mph9.7 kmh 29.86 in1011.2 mb 0.00 in0.0 mm 0.00 in/hr0.0 mm/hr 0.00 in0.0 mm
02:40 AM 81.8°F27.7°C 73.8°F23.2°C 77% 1.0 mph SE1.6 kmh SE 7.0 mph11.3 kmh 29.86 in1011.2 mb 0.00 in0.0 mm 0.00 in/hr0.0 mm/hr 0.00 in0.0 mm
02:35 AM 81.9°F27.7°C 73.9°F23.3°C 77% 2.0 mph SE3.2 kmh SE 6.0 mph9.7 kmh 29.86 in1011.2 mb 0.00 in0.0 mm 0.00 in/hr0.0 mm/hr 0.00 in0.0 mm
02:30 AM 82.0°F27.8°C 73.6°F23.1°C 76% 2.0 mph SE3.2 kmh SE 7.0 mph11.3 kmh 29.87 in1011.5 mb 0.00 in0.0 mm 0.00 in/hr0.0 mm/hr 0.00 in0.0 mm
02:25 AM 82.0°F27.8°C 73.6°F23.1°C 76% 2.0 mph SE3.2 kmh SE 5.0 mph8.0 kmh 29.86 in1011.2 mb 0.00 in0.0 mm 0.00 in/hr0.0 mm/hr 0.00 in0.0 mm
02:20 AM 82.0°F27.8°C 73.6°F23.1°C 76% 1.0 mph SE1.6 kmh SE 8.0 mph12.9 kmh 29.87 in1011.5 mb 0.00 in0.0 mm 0.00 in/hr0.0 mm/hr 0.00 in0.0 mm
02:15 AM 82.1°F27.8°C 73.7°F23.2°C 76% 1.0 mph SE1.6 kmh SE 6.0 mph9.7 kmh 29.87 in1011.5 mb 0.00 in0.0 mm 0.00 in/hr0.0 mm/hr 0.00 in0.0 mm
02:10 AM 82.1°F27.8°C 73.7°F23.2°C 76% Calm Calm 6.0 mph9.7 kmh 29.88 in1011.9 mb 0.00 in0.0 mm 0.00 in/hr0.0 mm/hr 0.00 in0.0 mm
02:05 AM 82.1°F27.8°C 73.7°F23.2°C 76% 3.0 mph SE4.8 kmh SE 7.0 mph11.3 kmh 29.87 in1011.5 mb 0.00 in0.0 mm 0.00 in/hr0.0 mm/hr 0.00 in0.0 mm
02:00 AM 82.2°F27.9°C 73.8°F23.2°C 76% 1.0 mph SE1.6 kmh SE 6.0 mph9.7 kmh 29.87 in1011.5 mb 0.00 in0.0 mm 0.00 in/hr0.0 mm/hr 0.00 in0.0 mm
01:55 AM 82.3°F27.9°C 73.5°F23.1°C 75% 3.0 mph ESE4.8 kmh ESE 6.0 mph9.7 kmh 29.87 in1011.5 mb 0.00 in0.0 mm 0.00 in/hr0.0 mm/hr 0.00 in0.0 mm
01:50 AM 82.4°F28.0°C 73.6°F23.1°C 75% 4.0 mph SE6.4 kmh SE 5.0 mph8.0 kmh 29.87 in1011.5 mb 0.00 in0.0 mm 0.00 in/hr0.0 mm/hr 0.00 in0.0 mm
01:45 AM 82.5°F28.1°C 73.7°F23.2°C 75% 1.0 mph SE1.6 kmh SE 8.0 mph12.9 kmh 29.88 in1011.9 mb 0.00 in0.0 mm 0.00 in/hr0.0 mm/hr 0.00 in0.0 mm
01:40 AM 82.6°F28.1°C 73.4°F23.0°C 74% 2.0 mph SE3.2 kmh SE 5.0 mph8.0 kmh 29.88 in1011.9 mb 0.00 in0.0 mm 0.00 in/hr0.0 mm/hr 0.00 in0.0 mm
01:35 AM 82.7°F28.2°C 73.5°F23.1°C 74% 3.0 mph SE4.8 kmh SE 5.0 mph8.0 kmh 29.89 in1012.2 mb 0.00 in0.0 mm 0.00 in/hr0.0 mm/hr 0.00 in0.0 mm
01:30 AM 82.8°F28.2°C 73.2°F22.9°C 73% 3.0 mph SSE4.8 kmh SSE 8.0 mph12.9 kmh 29.89 in1012.2 mb 0.00 in0.0 mm 0.00 in/hr0.0 mm/hr 0.00 in0.0 mm
01:25 AM 82.9°F28.3°C 73.3°F22.9°C 73% 4.0 mph SE6.4 kmh SE 6.0 mph9.7 kmh 29.89 in1012.2 mb 0.00 in0.0 mm 0.00 in/hr0.0 mm/hr 0.00 in0.0 mm
01:20 AM 83.0°F28.3°C 73.4°F23.0°C 73% 3.0 mph SSE4.8 kmh SSE 6.0 mph9.7 kmh 29.89 in1012.2 mb 0.00 in0.0 mm 0.00 in/hr0.0 mm/hr 0.00 in0.0 mm
01:15 AM 83.2°F28.4°C 73.2°F22.9°C 72% Calm Calm 6.0 mph9.7 kmh 29.88 in1011.9 mb 0.00 in0.0 mm 0.00 in/hr0.0 mm/hr 0.00 in0.0 mm
01:10 AM 83.3°F28.5°C 73.3°F22.9°C 72% 2.0 mph SE3.2 kmh SE 6.0 mph9.7 kmh 29.88 in1011.9 mb 0.00 in0.0 mm 0.00 in/hr0.0 mm/hr 0.00 in0.0 mm
01:05 AM 83.4°F28.6°C 72.9°F22.7°C 71% 3.0 mph SE4.8 kmh SE 8.0 mph12.9 kmh 29.88 in1011.9 mb 0.00 in0.0 mm 0.00 in/hr0.0 mm/hr 0.00 in0.0 mm
01:00 AM 83.5°F28.6°C 73.0°F22.8°C 71% Calm Calm 5.0 mph8.0 kmh 29.89 in1012.2 mb 0.00 in0.0 mm 0.00 in/hr0.0 mm/hr 0.00 in0.0 mm
12:55 AM 83.6°F28.7°C 73.1°F22.8°C 71% 3.0 mph SE4.8 kmh SE 7.0 mph11.3 kmh 29.88 in1011.9 mb 0.00 in0.0 mm 0.00 in/hr0.0 mm/hr 0.00 in0.0 mm
12:50 AM 83.8°F28.8°C 72.9°F22.7°C 70% 1.0 mph SE1.6 kmh SE 6.0 mph9.7 kmh 29.88 in1011.9 mb 0.00 in0.0 mm 0.00 in/hr0.0 mm/hr 0.00 in0.0 mm
12:45 AM 83.9°F28.8°C 73.0°F22.8°C 70% 2.0 mph SE3.2 kmh SE 9.0 mph14.5 kmh 29.88 in1011.9 mb 0.00 in0.0 mm 0.00 in/hr0.0 mm/hr 0.00 in0.0 mm
12:40 AM 84.1°F28.9°C 72.8°F22.7°C 69% Calm Calm 7.0 mph11.3 kmh 29.88 in1011.9 mb 0.00 in0.0 mm 0.00 in/hr0.0 mm/hr 0.00 in0.0 mm
12:35 AM 84.2°F29.0°C 72.8°F22.7°C 69% 6.0 mph SE9.7 kmh SE 9.0 mph14.5 kmh 29.88 in1011.9 mb 0.00 in0.0 mm 0.00 in/hr0.0 mm/hr 0.00 in0.0 mm
12:30 AM 84.3°F29.1°C 72.9°F22.7°C 69% 4.0 mph SE6.4 kmh SE 7.0 mph11.3 kmh 29.88 in1011.9 mb 0.00 in0.0 mm 0.00 in/hr0.0 mm/hr 0.00 in0.0 mm
12:25 AM 84.3°F29.1°C 72.5°F22.5°C 68% 2.0 mph SE3.2 kmh SE 7.0 mph11.3 kmh 29.88 in1011.9 mb 0.00 in0.0 mm 0.00 in/hr0.0 mm/hr 0.00 in0.0 mm
12:20 AM 84.4°F29.1°C 72.6°F22.6°C 68% 4.0 mph SW6.4 kmh SW 7.0 mph11.3 kmh 29.88 in1011.9 mb 0.00 in0.0 mm 0.00 in/hr0.0 mm/hr 0.00 in0.0 mm
12:15 AM 84.5°F29.2°C 72.7°F22.6°C 68% 5.0 mph SE8.0 kmh SE 7.0 mph11.3 kmh 29.88 in1011.9 mb 0.00 in0.0 mm 0.00 in/hr0.0 mm/hr 0.00 in0.0 mm
12:10 AM 84.5°F29.2°C 72.7°F22.6°C 68% 4.0 mph SE6.4 kmh SE 10.0 mph16.1 kmh 29.88 in1011.9 mb 0.00 in0.0 mm 0.00 in/hr0.0 mm/hr 0.00 in0.0 mm
12:05 AM 84.7°F29.3°C 72.4°F22.4°C 67% 4.0 mph SE6.4 kmh SE 8.0 mph12.9 kmh 29.88 in1011.9 mb 0.00 in0.0 mm 0.00 in/hr0.0 mm/hr 0.00 in0.0 mm
12:00 AM 84.7°F29.3°C 72.4°F22.4°C 67% Calm Calm 9.0 mph14.5 kmh 29.87 in1011.5 mb 0.00 in0.0 mm 0.00 in/hr0.0 mm/hr 0.00 in0.0 mm